sensor_id;sensor_type;location;lat;lon;timestamp;P1;durP1;ratioP1;P2;durP2;ratioP2
15183;SDS011;7693;49.266;7.104;2023-06-22T05:02:44;11.10;;;10.05;;
15183;SDS011;7693;49.266;7.104;2023-06-22T05:05:11;14.50;;;10.10;;
15183;SDS011;7693;49.266;7.104;2023-06-22T05:07:43;11.73;;;10.73;;
15183;SDS011;7693;49.266;7.104;2023-06-22T05:10:15;10.35;;;9.65;;
15183;SDS011;7693;49.266;7.104;2023-06-22T05:12:41;9.80;;;9.10;;
15183;SDS011;7693;49.266;7.104;2023-06-22T05:15:07;9.95;;;9.25;;
15183;SDS011;7693;49.266;7.104;2023-06-22T05:17:33;9.23;;;8.60;;
15183;SDS011;7693;49.266;7.104;2023-06-22T05:20:00;12.57;;;9.70;;
15183;SDS011;7693;49.266;7.104;2023-06-22T05:22:26;9.15;;;8.38;;
15183;SDS011;7693;49.266;7.104;2023-06-22T05:24:52;16.15;;;13.55;;
15183;SDS011;7693;49.266;7.104;2023-06-22T05:27:17;9.93;;;9.02;;
15183;SDS011;7693;49.266;7.104;2023-06-22T05:29:43;9.50;;;8.63;;
15183;SDS011;7693;49.266;7.104;2023-06-22T05:32:08;9.02;;;8.43;;
15183;SDS011;7693;49.266;7.104;2023-06-22T05:34:34;9.48;;;8.48;;
15183;SDS011;7693;49.266;7.104;2023-06-22T05:37:00;9.23;;;8.63;;
15183;SDS011;7693;49.266;7.104;2023-06-22T05:39:27;8.60;;;8.02;;
15183;SDS011;7693;49.266;7.104;2023-06-22T05:41:53;9.60;;;8.60;;
15183;SDS011;7693;49.266;7.104;2023-06-22T05:44:18;9.93;;;9.00;;
15183;SDS011;7693;49.266;7.104;2023-06-22T05:46:44;8.70;;;8.10;;
15183;SDS011;7693;49.266;7.104;2023-06-22T05:49:11;9.25;;;8.48;;
15183;SDS011;7693;49.266;7.104;2023-06-22T05:51:37;9.60;;;8.77;;
15183;SDS011;7693;49.266;7.104;2023-06-22T05:54:03;9.30;;;8.70;;
15183;SDS011;7693;49.266;7.104;2023-06-22T05:56:29;9.35;;;8.65;;
15183;SDS011;7693;49.266;7.104;2023-06-22T05:58:55;9.20;;;8.40;;
15183;SDS011;7693;49.266;7.104;2023-06-22T06:01:20;9.30;;;8.45;;
15183;SDS011;7693;49.266;7.104;2023-06-22T06:03:46;8.75;;;7.85;;
15183;SDS011;7693;49.266;7.104;2023-06-22T06:06:11;9.68;;;8.93;;
15183;SDS011;7693;49.266;7.104;2023-06-22T06:08:38;9.38;;;8.65;;
15183;SDS011;7693;49.266;7.104;2023-06-22T06:11:04;10.43;;;9.00;;
15183;SDS011;7693;49.266;7.104;2023-06-22T06:13:29;9.68;;;9.00;;
15183;SDS011;7693;49.266;7.104;2023-06-22T06:15:55;9.48;;;8.63;;
15183;SDS011;7693;49.266;7.104;2023-06-22T06:18:21;9.50;;;8.70;;
15183;SDS011;7693;49.266;7.104;2023-06-22T06:20:47;9.40;;;8.60;;
15183;SDS011;7693;49.266;7.104;2023-06-22T06:23:12;10.75;;;8.90;;
15183;SDS011;7693;49.266;7.104;2023-06-22T06:25:38;10.10;;;9.18;;
15183;SDS011;7693;49.266;7.104;2023-06-22T06:28:03;9.90;;;9.10;;
15183;SDS011;7693;49.266;7.104;2023-06-22T06:30:29;9.07;;;8.48;;
15183;SDS011;7693;49.266;7.104;2023-06-22T06:32:55;9.27;;;8.38;;
15183;SDS011;7693;49.266;7.104;2023-06-22T06:35:21;9.70;;;8.80;;
15183;SDS011;7693;49.266;7.104;2023-06-22T06:37:48;9.52;;;8.65;;
15183;SDS011;7693;49.266;7.104;2023-06-22T06:40:15;9.50;;;8.75;;
15183;SDS011;7693;49.266;7.104;2023-06-22T06:42:42;10.10;;;9.20;;
15183;SDS011;7693;49.266;7.104;2023-06-22T06:45:19;9.35;;;8.45;;
15183;SDS011;7693;49.266;7.104;2023-06-22T06:47:47;9.02;;;8.23;;
15183;SDS011;7693;49.266;7.104;2023-06-22T06:50:13;9.02;;;8.20;;
15183;SDS011;7693;49.266;7.104;2023-06-22T06:52:39;8.85;;;8.15;;
15183;SDS011;7693;49.266;7.104;2023-06-22T06:55:05;8.80;;;8.10;;
15183;SDS011;7693;49.266;7.104;2023-06-22T06:57:33;9.52;;;8.60;;
15183;SDS011;7693;49.266;7.104;2023-06-22T06:59:59;8.65;;;7.85;;
15183;SDS011;7693;49.266;7.104;2023-06-22T07:02:25;8.57;;;7.97;;
15183;SDS011;7693;49.266;7.104;2023-06-22T07:04:54;8.07;;;7.47;;
15183;SDS011;7693;49.266;7.104;2023-06-22T07:07:23;8.82;;;8.07;;
15183;SDS011;7693;49.266;7.104;2023-06-22T07:09:49;8.73;;;8.18;;
15183;SDS011;7693;49.266;7.104;2023-06-22T07:12:14;8.48;;;7.65;;
15183;SDS011;7693;49.266;7.104;2023-06-22T07:14:40;9.18;;;8.32;;
15183;SDS011;7693;49.266;7.104;2023-06-22T07:17:06;8.23;;;7.63;;
15183;SDS011;7693;49.266;7.104;2023-06-22T07:19:32;9.38;;;8.77;;
15183;SDS011;7693;49.266;7.104;2023-06-22T07:21:58;8.98;;;7.85;;
15183;SDS011;7693;49.266;7.104;2023-06-22T07:24:23;8.73;;;7.88;;
15183;SDS011;7693;49.266;7.104;2023-06-22T07:26:49;8.27;;;7.70;;
15183;SDS011;7693;49.266;7.104;2023-06-22T07:29:19;8.95;;;7.90;;
15183;SDS011;7693;49.266;7.104;2023-06-22T07:31:46;8.38;;;7.68;;
15183;SDS011;7693;49.266;7.104;2023-06-22T07:34:12;9.25;;;8.00;;
15183;SDS011;7693;49.266;7.104;2023-06-22T07:36:37;8.43;;;7.80;;
15183;SDS011;7693;49.266;7.104;2023-06-22T07:39:03;8.68;;;7.97;;
15183;SDS011;7693;49.266;7.104;2023-06-22T07:41:29;8.68;;;7.70;;
15183;SDS011;7693;49.266;7.104;2023-06-22T07:43:55;8.02;;;7.43;;
15183;SDS011;7693;49.266;7.104;2023-06-22T07:46:21;7.82;;;7.25;;
15183;SDS011;7693;49.266;7.104;2023-06-22T07:48:47;8.45;;;7.68;;
15183;SDS011;7693;49.266;7.104;2023-06-22T07:51:12;8.70;;;7.70;;
15183;SDS011;7693;49.266;7.104;2023-06-22T07:53:39;7.82;;;7.22;;
15183;SDS011;7693;49.266;7.104;2023-06-22T07:56:12;8.60;;;8.00;;
15183;SDS011;7693;49.266;7.104;2023-06-22T07:58:38;8.52;;;7.82;;
15183;SDS011;7693;49.266;7.104;2023-06-22T08:01:04;8.55;;;7.65;;
15183;SDS011;7693;49.266;7.104;2023-06-22T08:03:29;10.43;;;8.20;;
15183;SDS011;7693;49.266;7.104;2023-06-22T08:05:55;8.52;;;7.85;;
15183;SDS011;7693;49.266;7.104;2023-06-22T08:08:21;9.05;;;7.72;;
15183;SDS011;7693;49.266;7.104;2023-06-22T08:10:46;8.40;;;7.80;;
15183;SDS011;7693;49.266;7.104;2023-06-22T08:13:12;8.43;;;7.57;;
15183;SDS011;7693;49.266;7.104;2023-06-22T08:15:37;8.07;;;7.47;;
15183;SDS011;7693;49.266;7.104;2023-06-22T08:18:03;7.90;;;7.30;;
15183;SDS011;7693;49.266;7.104;2023-06-22T08:20:29;7.47;;;6.88;;
15183;SDS011;7693;49.266;7.104;2023-06-22T08:22:54;8.05;;;7.22;;
15183;SDS011;7693;49.266;7.104;2023-06-22T08:25:21;8.07;;;7.47;;
15183;SDS011;7693;49.266;7.104;2023-06-22T08:27:47;7.55;;;6.95;;
15183;SDS011;7693;49.266;7.104;2023-06-22T08:30:13;7.72;;;7.03;;
15183;SDS011;7693;49.266;7.104;2023-06-22T08:32:39;7.60;;;6.85;;
15183;SDS011;7693;49.266;7.104;2023-06-22T08:35:05;7.38;;;6.68;;
15183;SDS011;7693;49.266;7.104;2023-06-22T08:37:33;6.78;;;6.18;;
15183;SDS011;7693;49.266;7.104;2023-06-22T08:40:00;6.53;;;5.88;;
15183;SDS011;7693;49.266;7.104;2023-06-22T08:42:30;5.70;;;5.40;;
15183;SDS011;7693;49.266;7.104;2023-06-22T08:44:56;6.15;;;5.57;;
15183;SDS011;7693;49.266;7.104;2023-06-22T08:47:22;6.30;;;5.85;;
15183;SDS011;7693;49.266;7.104;2023-06-22T08:49:48;6.10;;;5.32;;
15183;SDS011;7693;49.266;7.104;2023-06-22T08:52:14;5.72;;;5.32;;
15183;SDS011;7693;49.266;7.104;2023-06-22T08:54:40;5.93;;;5.50;;
15183;SDS011;7693;49.266;7.104;2023-06-22T08:57:05;5.63;;;5.30;;
15183;SDS011;7693;49.266;7.104;2023-06-22T08:59:31;5.85;;;5.55;;
15183;SDS011;7693;49.266;7.104;2023-06-22T09:01:57;5.20;;;4.90;;
15183;SDS011;7693;49.266;7.104;2023-06-22T09:04:23;5.55;;;5.20;;
15183;SDS011;7693;49.266;7.104;2023-06-22T09:06:49;5.20;;;5.00;;
15183;SDS011;7693;49.266;7.104;2023-06-22T09:09:17;5.63;;;5.30;;
15183;SDS011;7693;49.266;7.104;2023-06-22T09:11:43;5.72;;;5.22;;
15183;SDS011;7693;49.266;7.104;2023-06-22T09:14:09;6.18;;;5.68;;
15183;SDS011;7693;49.266;7.104;2023-06-22T09:16:35;5.88;;;5.47;;
15183;SDS011;7693;49.266;7.104;2023-06-22T09:19:01;5.47;;;4.95;;
15183;SDS011;7693;49.266;7.104;2023-06-22T09:21:27;5.70;;;5.15;;
15183;SDS011;7693;49.266;7.104;2023-06-22T09:23:53;5.43;;;4.97;;
15183;SDS011;7693;49.266;7.104;2023-06-22T09:26:18;4.78;;;4.47;;
15183;SDS011;7693;49.266;7.104;2023-06-22T09:28:44;4.95;;;4.43;;
15183;SDS011;7693;49.266;7.104;2023-06-22T09:31:10;5.15;;;4.82;;
15183;SDS011;7693;49.266;7.104;2023-06-22T09:33:36;5.07;;;4.68;;
15183;SDS011;7693;49.266;7.104;2023-06-22T09:36:03;5.20;;;4.85;;
15183;SDS011;7693;49.266;7.104;2023-06-22T09:38:32;17.35;;;4.72;;
15183;SDS011;7693;49.266;7.104;2023-06-22T09:41:00;5.32;;;4.80;;
15183;SDS011;7693;49.266;7.104;2023-06-22T09:43:25;5.38;;;4.97;;
15183;SDS011;7693;49.266;7.104;2023-06-22T09:45:51;5.15;;;4.43;;
15183;SDS011;7693;49.266;7.104;2023-06-22T09:48:18;5.28;;;4.88;;
15183;SDS011;7693;49.266;7.104;2023-06-22T09:50:44;5.38;;;4.85;;
15183;SDS011;7693;49.266;7.104;2023-06-22T09:53:09;9.27;;;4.80;;
15183;SDS011;7693;49.266;7.104;2023-06-22T09:55:35;4.35;;;4.05;;
15183;SDS011;7693;49.266;7.104;2023-06-22T09:58:00;5.13;;;4.78;;
15183;SDS011;7693;49.266;7.104;2023-06-22T12:54:30;7.32;;;4.65;;
15183;SDS011;7693;49.266;7.104;2023-06-22T12:56:56;10.93;;;4.35;;
15183;SDS011;7693;49.266;7.104;2023-06-22T12:59:22;8.73;;;4.80;;
15183;SDS011;7693;49.266;7.104;2023-06-22T13:01:47;12.02;;;5.03;;
15183;SDS011;7693;49.266;7.104;2023-06-22T13:04:13;7.38;;;3.97;;
15183;SDS011;7693;49.266;7.104;2023-06-22T13:06:43;13.32;;;4.10;;
15183;SDS011;7693;49.266;7.104;2023-06-22T13:09:12;14.07;;;4.32;;
15183;SDS011;7693;49.266;7.104;2023-06-22T13:11:38;10.80;;;3.90;;
15183;SDS011;7693;49.266;7.104;2023-06-22T13:14:04;13.43;;;4.45;;
15183;SDS011;7693;49.266;7.104;2023-06-22T13:16:29;12.45;;;4.25;;
15183;SDS011;7693;49.266;7.104;2023-06-22T13:18:55;12.25;;;4.60;;
15183;SDS011;7693;49.266;7.104;2023-06-22T13:21:21;11.35;;;4.57;;
15183;SDS011;7693;49.266;7.104;2023-06-22T13:23:46;11.43;;;4.40;;
15183;SDS011;7693;49.266;7.104;2023-06-22T13:26:12;8.63;;;3.92;;
15183;SDS011;7693;49.266;7.104;2023-06-22T13:28:38;10.80;;;4.55;;
15183;SDS011;7693;49.266;7.104;2023-06-22T13:31:03;11.63;;;4.32;;
15183;SDS011;7693;49.266;7.104;2023-06-22T13:33:29;10.25;;;3.60;;
15183;SDS011;7693;49.266;7.104;2023-06-22T13:35:54;8.25;;;4.10;;
15183;SDS011;7693;49.266;7.104;2023-06-22T13:38:20;17.63;;;4.13;;
15183;SDS011;7693;49.266;7.104;2023-06-22T13:40:47;12.10;;;3.85;;
15183;SDS011;7693;49.266;7.104;2023-06-22T13:43:13;10.75;;;3.72;;
15183;SDS011;7693;49.266;7.104;2023-06-22T13:45:38;12.90;;;3.83;;
15183;SDS011;7693;49.266;7.104;2023-06-22T13:48:04;5.97;;;3.05;;
15183;SDS011;7693;49.266;7.104;2023-06-22T13:50:30;10.15;;;3.17;;
15183;SDS011;7693;49.266;7.104;2023-06-22T13:52:55;12.13;;;3.33;;
15183;SDS011;7693;49.266;7.104;2023-06-22T13:55:21;6.05;;;3.20;;
15183;SDS011;7693;49.266;7.104;2023-06-22T13:57:48;9.27;;;3.47;;
15183;SDS011;7693;49.266;7.104;2023-06-22T14:00:14;13.95;;;3.88;;
15183;SDS011;7693;49.266;7.104;2023-06-22T14:02:40;12.02;;;3.50;;
15183;SDS011;7693;49.266;7.104;2023-06-22T14:05:06;8.23;;;3.53;;
15183;SDS011;7693;49.266;7.104;2023-06-22T14:07:32;11.05;;;3.00;;
15183;SDS011;7693;49.266;7.104;2023-06-22T14:09:58;9.15;;;3.17;;
15183;SDS011;7693;49.266;7.104;2023-06-22T14:12:24;6.75;;;3.38;;
15183;SDS011;7693;49.266;7.104;2023-06-22T14:14:50;10.20;;;3.45;;
15183;SDS011;7693;49.266;7.104;2023-06-22T14:17:15;7.97;;;3.25;;
15183;SDS011;7693;49.266;7.104;2023-06-22T14:19:41;9.80;;;3.38;;
15183;SDS011;7693;49.266;7.104;2023-06-22T14:22:07;14.70;;;3.13;;
15183;SDS011;7693;49.266;7.104;2023-06-22T14:24:32;8.02;;;3.42;;
15183;SDS011;7693;49.266;7.104;2023-06-22T14:26:58;9.15;;;3.35;;
15183;SDS011;7693;49.266;7.104;2023-06-22T14:29:24;13.15;;;3.58;;
15183;SDS011;7693;49.266;7.104;2023-06-22T14:31:50;11.38;;;3.22;;
15183;SDS011;7693;49.266;7.104;2023-06-22T14:34:16;5.95;;;3.00;;
15183;SDS011;7693;49.266;7.104;2023-06-22T14:36:42;8.50;;;3.25;;
15183;SDS011;7693;49.266;7.104;2023-06-22T14:39:08;11.93;;;3.47;;
15183;SDS011;7693;49.266;7.104;2023-06-22T14:41:34;8.95;;;3.08;;
15183;SDS011;7693;49.266;7.104;2023-06-22T14:44:00;9.55;;;3.22;;
15183;SDS011;7693;49.266;7.104;2023-06-22T14:46:25;5.82;;;3.60;;
15183;SDS011;7693;49.266;7.104;2023-06-22T14:48:51;11.32;;;3.35;;
15183;SDS011;7693;49.266;7.104;2023-06-22T14:51:17;8.63;;;2.92;;
15183;SDS011;7693;49.266;7.104;2023-06-22T14:53:46;6.65;;;2.63;;
15183;SDS011;7693;49.266;7.104;2023-06-22T14:56:12;7.05;;;3.17;;
15183;SDS011;7693;49.266;7.104;2023-06-22T14:58:39;12.82;;;3.00;;
15183;SDS011;7693;49.266;7.104;2023-06-22T15:01:06;7.60;;;3.33;;
15183;SDS011;7693;49.266;7.104;2023-06-22T15:03:33;9.23;;;2.90;;
15183;SDS011;7693;49.266;7.104;2023-06-22T15:06:00;9.90;;;3.20;;
15183;SDS011;7693;49.266;7.104;2023-06-22T15:08:27;13.80;;;3.55;;
15183;SDS011;7693;49.266;7.104;2023-06-22T15:10:53;7.07;;;3.08;;
15183;SDS011;7693;49.266;7.104;2023-06-22T15:13:18;7.25;;;2.78;;
15183;SDS011;7693;49.266;7.104;2023-06-22T15:15:47;4.95;;;2.63;;
15183;SDS011;7693;49.266;7.104;2023-06-22T15:18:14;9.30;;;2.83;;
15183;SDS011;7693;49.266;7.104;2023-06-22T15:20:40;5.28;;;2.63;;
15183;SDS011;7693;49.266;7.104;2023-06-22T15:23:09;9.60;;;2.83;;
15183;SDS011;7693;49.266;7.104;2023-06-22T15:25:35;7.93;;;2.70;;
15183;SDS011;7693;49.266;7.104;2023-06-22T15:28:04;5.72;;;2.83;;
15183;SDS011;7693;49.266;7.104;2023-06-22T15:30:34;7.00;;;2.63;;
15183;SDS011;7693;49.266;7.104;2023-06-22T15:33:00;6.35;;;2.55;;
15183;SDS011;7693;49.266;7.104;2023-06-22T15:35:26;6.18;;;2.90;;
15183;SDS011;7693;49.266;7.104;2023-06-22T15:37:52;6.18;;;2.10;;
15183;SDS011;7693;49.266;7.104;2023-06-22T15:40:17;5.78;;;2.40;;
15183;SDS011;7693;49.266;7.104;2023-06-22T15:42:44;8.43;;;2.80;;
15183;SDS011;7693;49.266;7.104;2023-06-22T15:45:11;6.30;;;2.83;;
15183;SDS011;7693;49.266;7.104;2023-06-22T15:47:36;10.23;;;2.53;;
15183;SDS011;7693;49.266;7.104;2023-06-22T15:50:03;8.13;;;2.70;;
15183;SDS011;7693;49.266;7.104;2023-06-22T15:52:29;3.15;;;2.63;;
15183;SDS011;7693;49.266;7.104;2023-06-22T15:54:54;2.88;;;2.60;;
15183;SDS011;7693;49.266;7.104;2023-06-22T15:57:22;5.65;;;2.78;;
15183;SDS011;7693;49.266;7.104;2023-06-22T15:59:48;6.15;;;2.47;;
15183;SDS011;7693;49.266;7.104;2023-06-22T16:02:14;7.72;;;2.88;;
15183;SDS011;7693;49.266;7.104;2023-06-22T16:04:39;3.13;;;2.50;;
15183;SDS011;7693;49.266;7.104;2023-06-22T16:07:05;3.13;;;2.35;;
15183;SDS011;7693;49.266;7.104;2023-06-22T16:09:31;5.38;;;2.60;;
15183;SDS011;7693;49.266;7.104;2023-06-22T16:11:56;5.68;;;2.47;;
15183;SDS011;7693;49.266;7.104;2023-06-22T16:14:22;4.22;;;2.50;;
15183;SDS011;7693;49.266;7.104;2023-06-22T16:16:48;3.88;;;2.50;;
15183;SDS011;7693;49.266;7.104;2023-06-22T16:19:14;4.30;;;2.55;;
15183;SDS011;7693;49.266;7.104;2023-06-22T16:21:40;5.95;;;2.60;;
15183;SDS011;7693;49.266;7.104;2023-06-22T16:24:06;7.40;;;2.65;;
15183;SDS011;7693;49.266;7.104;2023-06-22T16:26:37;2.63;;;2.05;;
15183;SDS011;7693;49.266;7.104;2023-06-22T16:29:04;2.97;;;1.98;;
15183;SDS011;7693;49.266;7.104;2023-06-22T16:31:30;4.05;;;2.05;;
15183;SDS011;7693;49.266;7.104;2023-06-22T16:33:56;5.55;;;2.08;;
15183;SDS011;7693;49.266;7.104;2023-06-22T16:36:22;3.10;;;1.88;;
15183;SDS011;7693;49.266;7.104;2023-06-22T16:38:48;8.23;;;2.20;;
15183;SDS011;7693;49.266;7.104;2023-06-22T16:41:15;3.45;;;1.52;;
15183;SDS011;7693;49.266;7.104;2023-06-22T16:43:41;1.60;;;1.38;;
15183;SDS011;7693;49.266;7.104;2023-06-22T16:46:06;7.53;;;1.42;;
15183;SDS011;7693;49.266;7.104;2023-06-22T16:48:32;3.88;;;1.40;;
15183;SDS011;7693;49.266;7.104;2023-06-22T16:50:58;5.78;;;1.40;;
15183;SDS011;7693;49.266;7.104;2023-06-22T16:53:24;8.30;;;1.40;;
15183;SDS011;7693;49.266;7.104;2023-06-22T16:55:50;0.95;;;0.95;;
15183;SDS011;7693;49.266;7.104;2023-06-22T16:58:17;2.40;;;1.05;;
15183;SDS011;7693;49.266;7.104;2023-06-22T17:00:47;3.75;;;1.40;;
15183;SDS011;7693;49.266;7.104;2023-06-22T17:03:24;3.92;;;1.10;;
15183;SDS011;7693;49.266;7.104;2023-06-22T17:05:53;1.58;;;1.00;;
15183;SDS011;7693;49.266;7.104;2023-06-22T17:08:21;1.45;;;0.88;;
15183;SDS011;7693;49.266;7.104;2023-06-22T17:10:49;3.08;;;0.93;;
15183;SDS011;7693;49.266;7.104;2023-06-22T17:13:15;2.38;;;0.90;;
15183;SDS011;7693;49.266;7.104;2023-06-22T17:15:41;6.40;;;1.10;;
15183;SDS011;7693;49.266;7.104;2023-06-22T17:18:07;2.05;;;0.90;;
15183;SDS011;7693;49.266;7.104;2023-06-22T17:20:34;3.35;;;0.60;;
15183;SDS011;7693;49.266;7.104;2023-06-22T17:23:00;0.70;;;0.70;;
15183;SDS011;7693;49.266;7.104;2023-06-22T17:25:27;3.92;;;0.70;;
15183;SDS011;7693;49.266;7.104;2023-06-22T17:27:58;4.03;;;0.60;;
15183;SDS011;7693;49.266;7.104;2023-06-22T17:30:25;0.85;;;0.77;;
15183;SDS011;7693;49.266;7.104;2023-06-22T17:32:50;1.50;;;0.60;;
15183;SDS011;7693;49.266;7.104;2023-06-22T17:35:16;1.27;;;0.88;;
15183;SDS011;7693;49.266;7.104;2023-06-22T17:37:49;0.70;;;0.70;;
15183;SDS011;7693;49.266;7.104;2023-06-22T17:40:16;2.38;;;1.10;;
15183;SDS011;7693;49.266;7.104;2023-06-22T17:42:43;1.67;;;1.15;;
15183;SDS011;7693;49.266;7.104;2023-06-22T17:45:22;1.02;;;0.80;;
15183;SDS011;7693;49.266;7.104;2023-06-22T17:47:48;1.00;;;0.85;;
15183;SDS011;7693;49.266;7.104;2023-06-22T17:50:15;0.90;;;0.90;;
15183;SDS011;7693;49.266;7.104;2023-06-22T17:52:41;1.20;;;1.10;;
15183;SDS011;7693;49.266;7.104;2023-06-22T17:55:14;1.05;;;1.05;;
15183;SDS011;7693;49.266;7.104;2023-06-22T17:57:40;2.67;;;1.50;;
15183;SDS011;7693;49.266;7.104;2023-06-22T18:00:07;1.60;;;1.20;;
15183;SDS011;7693;49.266;7.104;2023-06-22T18:02:42;1.20;;;1.20;;
15183;SDS011;7693;49.266;7.104;2023-06-22T18:05:10;1.50;;;1.40;;
15183;SDS011;7693;49.266;7.104;2023-06-22T18:07:37;3.35;;;1.00;;
15183;SDS011;7693;49.266;7.104;2023-06-22T18:10:05;1.00;;;1.00;;
15183;SDS011;7693;49.266;7.104;2023-06-22T18:12:33;1.10;;;0.95;;
15183;SDS011;7693;49.266;7.104;2023-06-22T18:15:00;1.80;;;1.13;;
15183;SDS011;7693;49.266;7.104;2023-06-22T18:17:25;2.05;;;0.90;;
15183;SDS011;7693;49.266;7.104;2023-06-22T18:19:52;1.00;;;1.00;;
15183;SDS011;7693;49.266;7.104;2023-06-22T18:22:19;0.90;;;0.90;;
15183;SDS011;7693;49.266;7.104;2023-06-22T18:24:46;1.98;;;0.90;;
15183;SDS011;7693;49.266;7.104;2023-06-22T18:27:15;1.15;;;1.08;;
15183;SDS011;7693;49.266;7.104;2023-06-22T18:29:41;1.58;;;1.25;;
15183;SDS011;7693;49.266;7.104;2023-06-22T18:32:12;1.00;;;1.00;;
15183;SDS011;7693;49.266;7.104;2023-06-22T18:34:39;0.98;;;0.98;;
15183;SDS011;7693;49.266;7.104;2023-06-22T18:37:06;1.10;;;1.10;;
15183;SDS011;7693;49.266;7.104;2023-06-22T18:39:38;3.63;;;1.20;;
15183;SDS011;7693;49.266;7.104;2023-06-22T18:42:08;1.00;;;1.00;;
15183;SDS011;7693;49.266;7.104;2023-06-22T18:44:34;1.08;;;1.05;;
15183;SDS011;7693;49.266;7.104;2023-06-22T18:47:00;1.88;;;0.93;;
15183;SDS011;7693;49.266;7.104;2023-06-22T18:49:31;1.95;;;1.10;;
15183;SDS011;7693;49.266;7.104;2023-06-22T18:52:11;2.45;;;1.20;;
15183;SDS011;7693;49.266;7.104;2023-06-22T18:54:43;1.23;;;1.13;;
15183;SDS011;7693;49.266;7.104;2023-06-22T18:57:15;1.30;;;1.08;;
15183;SDS011;7693;49.266;7.104;2023-06-22T19:00:03;1.90;;;1.27;;
15183;SDS011;7693;49.266;7.104;2023-06-22T19:13:19;1.42;;;1.33;;
15183;SDS011;7693;49.266;7.104;2023-06-22T19:15:45;1.85;;;1.30;;
15183;SDS011;7693;49.266;7.104;2023-06-22T19:18:41;1.38;;;1.25;;
15183;SDS011;7693;49.266;7.104;2023-06-22T19:21:20;1.30;;;1.30;;
15183;SDS011;7693;49.266;7.104;2023-06-22T19:23:47;1.30;;;1.30;;
15183;SDS011;7693;49.266;7.104;2023-06-22T19:26:13;1.20;;;1.20;;
15183;SDS011;7693;49.266;7.104;2023-06-22T19:28:44;1.27;;;1.20;;
15183;SDS011;7693;49.266;7.104;2023-06-22T19:31:10;1.30;;;1.30;;
15183;SDS011;7693;49.266;7.104;2023-06-22T19:33:36;1.40;;;1.38;;
15183;SDS011;7693;49.266;7.104;2023-06-22T19:36:03;1.50;;;1.40;;
15183;SDS011;7693;49.266;7.104;2023-06-22T19:38:29;1.40;;;1.40;;
15183;SDS011;7693;49.266;7.104;2023-06-22T19:40:56;1.48;;;1.42;;
15183;SDS011;7693;49.266;7.104;2023-06-22T19:43:26;1.55;;;1.30;;
15183;SDS011;7693;49.266;7.104;2023-06-22T19:45:55;1.17;;;1.17;;
15183;SDS011;7693;49.266;7.104;2023-06-22T19:48:23;2.72;;;1.30;;
15183;SDS011;7693;49.266;7.104;2023-06-22T19:50:51;1.60;;;1.50;;
15183;SDS011;7693;49.266;7.104;2023-06-22T19:53:17;1.25;;;1.25;;
15183;SDS011;7693;49.266;7.104;2023-06-22T19:55:43;1.52;;;1.50;;
15183;SDS011;7693;49.266;7.104;2023-06-22T19:58:10;2.22;;;1.52;;
15183;SDS011;7693;49.266;7.104;2023-06-22T20:00:40;1.67;;;1.60;;
15183;SDS011;7693;49.266;7.104;2023-06-22T20:03:15;2.05;;;1.58;;
15183;SDS011;7693;49.266;7.104;2023-06-22T20:05:42;1.88;;;1.77;;
15183;SDS011;7693;49.266;7.104;2023-06-22T20:08:10;1.80;;;1.73;;
15183;SDS011;7693;49.266;7.104;2023-06-22T20:10:39;1.73;;;1.73;;
15183;SDS011;7693;49.266;7.104;2023-06-22T20:13:09;1.90;;;1.90;;
15183;SDS011;7693;49.266;7.104;2023-06-22T20:15:43;2.55;;;2.35;;
15183;SDS011;7693;49.266;7.104;2023-06-22T20:18:10;1.88;;;1.80;;
15183;SDS011;7693;49.266;7.104;2023-06-22T20:20:37;1.95;;;1.95;;
15183;SDS011;7693;49.266;7.104;2023-06-22T20:23:07;2.22;;;2.03;;
15183;SDS011;7693;49.266;7.104;2023-06-22T20:25:35;2.50;;;2.33;;
15183;SDS011;7693;49.266;7.104;2023-06-22T20:30:34;2.22;;;2.08;;
15183;SDS011;7693;49.266;7.104;2023-06-22T20:33:00;2.28;;;2.25;;
15183;SDS011;7693;49.266;7.104;2023-06-22T20:35:29;2.58;;;2.47;;
15183;SDS011;7693;49.266;7.104;2023-06-22T20:37:54;2.80;;;2.70;;
15183;SDS011;7693;49.266;7.104;2023-06-22T20:40:21;5.45;;;2.10;;
15183;SDS011;7693;49.266;7.104;2023-06-22T20:42:53;3.08;;;2.70;;
15183;SDS011;7693;49.266;7.104;2023-06-22T20:45:23;2.40;;;2.30;;
15183;SDS011;7693;49.266;7.104;2023-06-22T20:47:50;2.40;;;2.20;;
15183;SDS011;7693;49.266;7.104;2023-06-22T20:50:16;2.55;;;2.25;;
15183;SDS011;7693;49.266;7.104;2023-06-22T20:52:42;2.05;;;2.00;;
15183;SDS011;7693;49.266;7.104;2023-06-22T20:55:09;1.70;;;1.70;;
15183;SDS011;7693;49.266;7.104;2023-06-22T20:57:35;2.30;;;2.10;;
15183;SDS011;7693;49.266;7.104;2023-06-22T21:00:01;2.05;;;1.70;;
15183;SDS011;7693;49.266;7.104;2023-06-22T21:02:31;2.00;;;1.58;;
15183;SDS011;7693;49.266;7.104;2023-06-22T21:04:56;1.83;;;1.75;;
15183;SDS011;7693;49.266;7.104;2023-06-22T21:07:22;1.55;;;1.50;;
15183;SDS011;7693;49.266;7.104;2023-06-22T21:09:47;1.50;;;1.50;;
15183;SDS011;7693;49.266;7.104;2023-06-22T21:12:13;1.67;;;1.58;;
15183;SDS011;7693;49.266;7.104;2023-06-22T21:14:39;1.92;;;1.83;;
15183;SDS011;7693;49.266;7.104;2023-06-22T21:17:04;1.60;;;1.50;;
15183;SDS011;7693;49.266;7.104;2023-06-22T21:19:30;2.88;;;1.60;;
15183;SDS011;7693;49.266;7.104;2023-06-22T21:21:55;1.70;;;1.70;;
15183;SDS011;7693;49.266;7.104;2023-06-22T21:24:21;2.28;;;1.60;;
15183;SDS011;7693;49.266;7.104;2023-06-22T21:26:46;4.45;;;1.88;;
15183;SDS011;7693;49.266;7.104;2023-06-22T21:29:12;1.92;;;1.90;;
15183;SDS011;7693;49.266;7.104;2023-06-22T21:31:37;1.83;;;1.73;;
15183;SDS011;7693;49.266;7.104;2023-06-22T21:34:03;2.47;;;1.92;;
15183;SDS011;7693;49.266;7.104;2023-06-22T21:36:28;4.28;;;1.98;;
15183;SDS011;7693;49.266;7.104;2023-06-22T21:38:54;2.15;;;2.13;;
15183;SDS011;7693;49.266;7.104;2023-06-22T21:41:20;2.30;;;2.20;;
15183;SDS011;7693;49.266;7.104;2023-06-22T21:43:46;2.67;;;2.55;;
15183;SDS011;7693;49.266;7.104;2023-06-22T21:46:13;3.00;;;2.80;;
15183;SDS011;7693;49.266;7.104;2023-06-22T21:48:38;2.88;;;2.58;;
15183;SDS011;7693;49.266;7.104;2023-06-22T21:51:04;3.00;;;2.90;;
15183;SDS011;7693;49.266;7.104;2023-06-22T21:53:30;3.17;;;3.08;;
15183;SDS011;7693;49.266;7.104;2023-06-22T21:55:56;3.38;;;3.17;;
